sensor_id;sensor_type;location;lat;lon;timestamp;P1;durP1;ratioP1;P2;durP2;ratioP2
21611;SDS011;47005;52.292;13.452;2022-07-23T00:02:01;5.80;;;4.40;;
21611;SDS011;47005;52.292;13.452;2022-07-23T00:04:27;9.45;;;5.47;;
21611;SDS011;47005;52.292;13.452;2022-07-23T00:06:52;7.00;;;4.40;;
21611;SDS011;47005;52.292;13.452;2022-07-23T00:09:18;5.25;;;4.43;;
21611;SDS011;47005;52.292;13.452;2022-07-23T00:11:44;7.47;;;4.93;;
21611;SDS011;47005;52.292;13.452;2022-07-23T00:14:09;6.35;;;4.50;;
21611;SDS011;47005;52.292;13.452;2022-07-23T00:16:35;8.50;;;4.88;;
21611;SDS011;47005;52.292;13.452;2022-07-23T00:19:00;6.78;;;4.90;;
21611;SDS011;47005;52.292;13.452;2022-07-23T00:21:27;6.47;;;4.70;;
21611;SDS011;47005;52.292;13.452;2022-07-23T00:23:53;7.60;;;4.43;;
21611;SDS011;47005;52.292;13.452;2022-07-23T00:26:18;6.65;;;5.00;;
21611;SDS011;47005;52.292;13.452;2022-07-23T00:28:44;7.40;;;5.00;;
21611;SDS011;47005;52.292;13.452;2022-07-23T00:31:10;7.82;;;4.93;;
21611;SDS011;47005;52.292;13.452;2022-07-23T00:33:35;6.70;;;4.88;;
21611;SDS011;47005;52.292;13.452;2022-07-23T00:36:01;6.03;;;4.53;;
21611;SDS011;47005;52.292;13.452;2022-07-23T00:38:27;7.18;;;4.97;;
21611;SDS011;47005;52.292;13.452;2022-07-23T00:40:52;10.63;;;4.72;;
21611;SDS011;47005;52.292;13.452;2022-07-23T00:43:19;7.70;;;4.93;;
21611;SDS011;47005;52.292;13.452;2022-07-23T00:45:46;7.22;;;4.80;;
21611;SDS011;47005;52.292;13.452;2022-07-23T00:48:12;7.50;;;5.40;;
21611;SDS011;47005;52.292;13.452;2022-07-23T00:50:37;7.80;;;5.20;;
21611;SDS011;47005;52.292;13.452;2022-07-23T00:53:03;12.15;;;5.20;;
21611;SDS011;47005;52.292;13.452;2022-07-23T00:55:30;8.40;;;5.57;;
21611;SDS011;47005;52.292;13.452;2022-07-23T00:57:56;7.47;;;5.07;;
21611;SDS011;47005;52.292;13.452;2022-07-23T01:00:23;6.90;;;5.53;;
21611;SDS011;47005;52.292;13.452;2022-07-23T01:02:49;9.20;;;5.00;;
21611;SDS011;47005;52.292;13.452;2022-07-23T01:05:15;7.32;;;4.88;;
21611;SDS011;47005;52.292;13.452;2022-07-23T01:07:42;7.65;;;4.90;;
21611;SDS011;47005;52.292;13.452;2022-07-23T01:10:08;7.07;;;4.85;;
21611;SDS011;47005;52.292;13.452;2022-07-23T01:12:53;6.72;;;4.85;;
21611;SDS011;47005;52.292;13.452;2022-07-23T01:15:18;8.32;;;4.70;;
21611;SDS011;47005;52.292;13.452;2022-07-23T01:17:44;7.47;;;5.50;;
21611;SDS011;47005;52.292;13.452;2022-07-23T01:20:10;5.90;;;4.25;;
21611;SDS011;47005;52.292;13.452;2022-07-23T01:22:35;6.57;;;5.60;;
21611;SDS011;47005;52.292;13.452;2022-07-23T01:25:01;8.00;;;5.45;;
21611;SDS011;47005;52.292;13.452;2022-07-23T01:27:26;7.20;;;5.05;;
21611;SDS011;47005;52.292;13.452;2022-07-23T01:29:52;7.10;;;5.20;;
21611;SDS011;47005;52.292;13.452;2022-07-23T01:32:19;8.00;;;4.57;;
21611;SDS011;47005;52.292;13.452;2022-07-23T01:34:45;8.50;;;5.25;;
21611;SDS011;47005;52.292;13.452;2022-07-23T01:37:11;7.03;;;4.68;;
21611;SDS011;47005;52.292;13.452;2022-07-23T01:39:36;6.72;;;4.65;;
21611;SDS011;47005;52.292;13.452;2022-07-23T01:42:02;7.85;;;5.00;;
21611;SDS011;47005;52.292;13.452;2022-07-23T01:44:27;6.85;;;5.40;;
21611;SDS011;47005;52.292;13.452;2022-07-23T01:46:53;7.20;;;4.88;;
21611;SDS011;47005;52.292;13.452;2022-07-23T01:49:21;6.13;;;4.45;;
21611;SDS011;47005;52.292;13.452;2022-07-23T01:51:47;7.22;;;4.93;;
21611;SDS011;47005;52.292;13.452;2022-07-23T01:54:31;7.97;;;4.47;;
21611;SDS011;47005;52.292;13.452;2022-07-23T01:56:58;6.72;;;5.20;;
21611;SDS011;47005;52.292;13.452;2022-07-23T01:59:25;8.27;;;4.65;;
21611;SDS011;47005;52.292;13.452;2022-07-23T02:01:51;6.38;;;4.85;;
21611;SDS011;47005;52.292;13.452;2022-07-23T02:04:17;6.45;;;4.65;;
21611;SDS011;47005;52.292;13.452;2022-07-23T02:06:43;5.90;;;4.55;;
21611;SDS011;47005;52.292;13.452;2022-07-23T02:09:09;10.35;;;5.60;;
21611;SDS011;47005;52.292;13.452;2022-07-23T02:11:34;7.07;;;4.78;;
21611;SDS011;47005;52.292;13.452;2022-07-23T02:14:00;7.88;;;5.68;;
21611;SDS011;47005;52.292;13.452;2022-07-23T02:16:25;7.82;;;5.32;;
21611;SDS011;47005;52.292;13.452;2022-07-23T02:18:51;10.55;;;6.10;;
21611;SDS011;47005;52.292;13.452;2022-07-23T02:21:17;9.23;;;5.00;;
21611;SDS011;47005;52.292;13.452;2022-07-23T02:23:42;6.38;;;5.32;;
21611;SDS011;47005;52.292;13.452;2022-07-23T02:26:08;7.22;;;5.97;;
21611;SDS011;47005;52.292;13.452;2022-07-23T02:28:34;8.70;;;5.60;;
21611;SDS011;47005;52.292;13.452;2022-07-23T02:30:59;10.63;;;5.72;;
21611;SDS011;47005;52.292;13.452;2022-07-23T02:33:25;6.53;;;5.47;;
21611;SDS011;47005;52.292;13.452;2022-07-23T02:35:51;8.23;;;5.05;;
21611;SDS011;47005;52.292;13.452;2022-07-23T02:38:16;7.40;;;5.45;;
21611;SDS011;47005;52.292;13.452;2022-07-23T02:40:42;7.95;;;5.25;;
21611;SDS011;47005;52.292;13.452;2022-07-23T02:43:08;7.97;;;5.55;;
21611;SDS011;47005;52.292;13.452;2022-07-23T02:45:33;6.35;;;4.97;;
21611;SDS011;47005;52.292;13.452;2022-07-23T02:47:59;8.65;;;5.13;;
21611;SDS011;47005;52.292;13.452;2022-07-23T02:50:24;10.27;;;6.97;;
21611;SDS011;47005;52.292;13.452;2022-07-23T02:52:50;9.77;;;5.60;;
21611;SDS011;47005;52.292;13.452;2022-07-23T02:55:16;8.45;;;6.28;;
21611;SDS011;47005;52.292;13.452;2022-07-23T02:57:41;10.32;;;5.72;;
21611;SDS011;47005;52.292;13.452;2022-07-23T03:00:07;9.13;;;5.00;;
21611;SDS011;47005;52.292;13.452;2022-07-23T03:02:33;6.70;;;5.10;;
21611;SDS011;47005;52.292;13.452;2022-07-23T03:04:59;7.35;;;5.40;;
21611;SDS011;47005;52.292;13.452;2022-07-23T03:07:25;8.88;;;4.78;;
21611;SDS011;47005;52.292;13.452;2022-07-23T03:09:50;7.38;;;5.65;;
21611;SDS011;47005;52.292;13.452;2022-07-23T03:12:16;8.63;;;5.00;;
21611;SDS011;47005;52.292;13.452;2022-07-23T03:14:41;7.40;;;5.05;;
21611;SDS011;47005;52.292;13.452;2022-07-23T03:17:07;6.63;;;5.00;;
21611;SDS011;47005;52.292;13.452;2022-07-23T03:19:33;9.02;;;5.25;;
21611;SDS011;47005;52.292;13.452;2022-07-23T03:21:59;9.63;;;5.72;;
21611;SDS011;47005;52.292;13.452;2022-07-23T03:24:24;6.45;;;4.80;;
21611;SDS011;47005;52.292;13.452;2022-07-23T03:27:10;8.68;;;6.22;;
21611;SDS011;47005;52.292;13.452;2022-07-23T03:29:36;8.05;;;5.70;;
21611;SDS011;47005;52.292;13.452;2022-07-23T03:32:02;7.40;;;5.75;;
21611;SDS011;47005;52.292;13.452;2022-07-23T03:34:29;7.60;;;5.72;;
21611;SDS011;47005;52.292;13.452;2022-07-23T03:36:54;6.72;;;5.00;;
21611;SDS011;47005;52.292;13.452;2022-07-23T03:39:20;7.32;;;5.40;;
21611;SDS011;47005;52.292;13.452;2022-07-23T03:41:45;10.30;;;6.80;;
21611;SDS011;47005;52.292;13.452;2022-07-23T03:44:11;7.20;;;6.07;;
21611;SDS011;47005;52.292;13.452;2022-07-23T03:46:36;7.65;;;5.07;;
21611;SDS011;47005;52.292;13.452;2022-07-23T03:49:02;8.10;;;5.80;;
21611;SDS011;47005;52.292;13.452;2022-07-23T03:51:28;7.15;;;5.68;;
21611;SDS011;47005;52.292;13.452;2022-07-23T03:53:53;8.02;;;6.00;;
21611;SDS011;47005;52.292;13.452;2022-07-23T03:56:20;6.88;;;5.45;;
21611;SDS011;47005;52.292;13.452;2022-07-23T03:58:46;7.35;;;5.30;;
21611;SDS011;47005;52.292;13.452;2022-07-23T04:01:12;6.90;;;5.15;;
21611;SDS011;47005;52.292;13.452;2022-07-23T04:03:37;7.75;;;5.25;;
21611;SDS011;47005;52.292;13.452;2022-07-23T04:06:03;7.00;;;4.78;;
21611;SDS011;47005;52.292;13.452;2022-07-23T04:08:29;8.48;;;5.30;;
21611;SDS011;47005;52.292;13.452;2022-07-23T04:10:54;9.52;;;5.47;;
21611;SDS011;47005;52.292;13.452;2022-07-23T04:13:20;7.68;;;5.40;;
21611;SDS011;47005;52.292;13.452;2022-07-23T04:15:46;7.70;;;4.63;;
21611;SDS011;47005;52.292;13.452;2022-07-23T04:18:12;8.23;;;4.95;;
21611;SDS011;47005;52.292;13.452;2022-07-23T04:20:37;6.05;;;5.07;;
21611;SDS011;47005;52.292;13.452;2022-07-23T04:23:03;6.80;;;4.85;;
21611;SDS011;47005;52.292;13.452;2022-07-23T04:25:29;11.20;;;4.78;;
21611;SDS011;47005;52.292;13.452;2022-07-23T04:27:54;9.02;;;5.63;;
21611;SDS011;47005;52.292;13.452;2022-07-23T04:30:20;8.48;;;4.57;;
21611;SDS011;47005;52.292;13.452;2022-07-23T04:32:46;9.70;;;4.97;;
21611;SDS011;47005;52.292;13.452;2022-07-23T04:35:11;9.60;;;5.38;;
21611;SDS011;47005;52.292;13.452;2022-07-23T04:37:37;6.72;;;4.80;;
21611;SDS011;47005;52.292;13.452;2022-07-23T04:40:03;5.50;;;4.43;;
21611;SDS011;47005;52.292;13.452;2022-07-23T04:42:29;6.65;;;4.55;;
21611;SDS011;47005;52.292;13.452;2022-07-23T04:44:54;9.05;;;5.35;;
21611;SDS011;47005;52.292;13.452;2022-07-23T04:47:20;9.10;;;5.43;;
21611;SDS011;47005;52.292;13.452;2022-07-23T04:49:46;5.60;;;4.22;;
21611;SDS011;47005;52.292;13.452;2022-07-23T04:52:11;7.63;;;5.25;;
21611;SDS011;47005;52.292;13.452;2022-07-23T04:54:37;8.25;;;5.03;;
21611;SDS011;47005;52.292;13.452;2022-07-23T04:57:02;11.63;;;5.68;;
21611;SDS011;47005;52.292;13.452;2022-07-23T04:59:28;10.60;;;5.20;;
21611;SDS011;47005;52.292;13.452;2022-07-23T05:01:54;11.55;;;4.95;;
21611;SDS011;47005;52.292;13.452;2022-07-23T05:04:19;6.95;;;5.10;;
21611;SDS011;47005;52.292;13.452;2022-07-23T05:06:45;6.78;;;5.07;;
21611;SDS011;47005;52.292;13.452;2022-07-23T05:09:10;11.05;;;5.95;;
21611;SDS011;47005;52.292;13.452;2022-07-23T05:11:36;9.63;;;4.78;;
21611;SDS011;47005;52.292;13.452;2022-07-23T05:14:02;10.32;;;4.85;;
21611;SDS011;47005;52.292;13.452;2022-07-23T05:16:27;8.07;;;5.07;;
21611;SDS011;47005;52.292;13.452;2022-07-23T05:18:53;10.27;;;5.97;;
21611;SDS011;47005;52.292;13.452;2022-07-23T05:21:19;15.90;;;5.03;;
21611;SDS011;47005;52.292;13.452;2022-07-23T05:23:44;15.63;;;5.57;;
21611;SDS011;47005;52.292;13.452;2022-07-23T05:26:10;9.02;;;4.95;;
21611;SDS011;47005;52.292;13.452;2022-07-23T05:28:36;9.02;;;5.00;;
21611;SDS011;47005;52.292;13.452;2022-07-23T05:31:02;7.00;;;4.03;;
21611;SDS011;47005;52.292;13.452;2022-07-23T05:33:28;9.20;;;4.50;;
21611;SDS011;47005;52.292;13.452;2022-07-23T05:35:59;14.35;;;4.20;;
21611;SDS011;47005;52.292;13.452;2022-07-23T05:38:26;6.97;;;3.47;;
21611;SDS011;47005;52.292;13.452;2022-07-23T05:40:52;5.32;;;3.33;;
21611;SDS011;47005;52.292;13.452;2022-07-23T05:43:18;5.35;;;3.17;;
21611;SDS011;47005;52.292;13.452;2022-07-23T05:45:43;7.97;;;3.88;;
21611;SDS011;47005;52.292;13.452;2022-07-23T05:48:09;6.25;;;2.97;;
21611;SDS011;47005;52.292;13.452;2022-07-23T05:50:34;4.85;;;2.58;;
21611;SDS011;47005;52.292;13.452;2022-07-23T05:53:00;7.47;;;3.20;;
21611;SDS011;47005;52.292;13.452;2022-07-23T05:55:26;8.32;;;3.63;;
21611;SDS011;47005;52.292;13.452;2022-07-23T05:57:54;4.88;;;3.17;;
21611;SDS011;47005;52.292;13.452;2022-07-23T06:00:21;4.47;;;3.05;;
21611;SDS011;47005;52.292;13.452;2022-07-23T06:02:47;7.97;;;3.85;;
21611;SDS011;47005;52.292;13.452;2022-07-23T06:05:56;7.25;;;3.58;;
21611;SDS011;47005;52.292;13.452;2022-07-23T06:08:21;8.30;;;3.05;;
21611;SDS011;47005;52.292;13.452;2022-07-23T06:13:43;7.85;;;2.90;;
21611;SDS011;47005;52.292;13.452;2022-07-23T06:16:09;9.02;;;3.60;;
21611;SDS011;47005;52.292;13.452;2022-07-23T06:18:34;5.45;;;2.85;;
21611;SDS011;47005;52.292;13.452;2022-07-23T06:21:00;6.32;;;3.00;;
21611;SDS011;47005;52.292;13.452;2022-07-23T06:23:26;5.88;;;2.70;;
21611;SDS011;47005;52.292;13.452;2022-07-23T06:25:51;6.57;;;2.53;;
21611;SDS011;47005;52.292;13.452;2022-07-23T06:28:17;7.05;;;3.22;;
21611;SDS011;47005;52.292;13.452;2022-07-23T06:30:43;6.25;;;2.85;;
21611;SDS011;47005;52.292;13.452;2022-07-23T06:33:08;6.13;;;2.88;;
21611;SDS011;47005;52.292;13.452;2022-07-23T06:35:34;5.97;;;2.70;;
21611;SDS011;47005;52.292;13.452;2022-07-23T06:38:00;6.82;;;3.90;;
21611;SDS011;47005;52.292;13.452;2022-07-23T06:40:26;11.32;;;3.58;;
21611;SDS011;47005;52.292;13.452;2022-07-23T06:43:01;7.35;;;3.28;;
21611;SDS011;47005;52.292;13.452;2022-07-23T06:46:14;6.03;;;3.30;;
21611;SDS011;47005;52.292;13.452;2022-07-23T06:48:47;9.90;;;3.30;;
21611;SDS011;47005;52.292;13.452;2022-07-23T06:51:19;8.00;;;3.35;;
21611;SDS011;47005;52.292;13.452;2022-07-23T06:53:54;5.40;;;3.33;;
21611;SDS011;47005;52.292;13.452;2022-07-23T06:56:39;5.82;;;3.67;;
21611;SDS011;47005;52.292;13.452;2022-07-23T06:59:11;13.65;;;3.83;;
21611;SDS011;47005;52.292;13.452;2022-07-23T07:01:37;10.52;;;4.07;;
21611;SDS011;47005;52.292;13.452;2022-07-23T07:04:03;6.50;;;3.55;;
21611;SDS011;47005;52.292;13.452;2022-07-23T07:06:29;11.80;;;4.15;;
21611;SDS011;47005;52.292;13.452;2022-07-23T07:08:54;9.48;;;4.45;;
21611;SDS011;47005;52.292;13.452;2022-07-23T07:11:21;10.57;;;3.35;;
21611;SDS011;47005;52.292;13.452;2022-07-23T07:13:50;6.60;;;3.17;;
21611;SDS011;47005;52.292;13.452;2022-07-23T07:16:15;6.55;;;3.75;;
21611;SDS011;47005;52.292;13.452;2022-07-23T07:18:41;6.85;;;3.88;;
21611;SDS011;47005;52.292;13.452;2022-07-23T07:21:16;5.30;;;3.58;;
21611;SDS011;47005;52.292;13.452;2022-07-23T07:23:42;9.00;;;3.55;;
21611;SDS011;47005;52.292;13.452;2022-07-23T07:26:13;5.95;;;3.88;;
21611;SDS011;47005;52.292;13.452;2022-07-23T07:28:40;5.93;;;3.30;;
21611;SDS011;47005;52.292;13.452;2022-07-23T07:31:06;8.35;;;4.00;;
21611;SDS011;47005;52.292;13.452;2022-07-23T07:33:32;4.85;;;3.25;;
21611;SDS011;47005;52.292;13.452;2022-07-23T07:35:58;9.50;;;3.33;;
21611;SDS011;47005;52.292;13.452;2022-07-23T07:38:24;5.60;;;3.60;;
21611;SDS011;47005;52.292;13.452;2022-07-23T07:41:00;6.07;;;3.65;;
21611;SDS011;47005;52.292;13.452;2022-07-23T07:43:35;11.00;;;3.80;;
21611;SDS011;47005;52.292;13.452;2022-07-23T07:46:02;9.25;;;3.80;;
21611;SDS011;47005;52.292;13.452;2022-07-23T07:48:28;7.00;;;4.30;;
21611;SDS011;47005;52.292;13.452;2022-07-23T07:50:54;8.65;;;4.50;;
21611;SDS011;47005;52.292;13.452;2022-07-23T07:53:20;8.45;;;3.55;;
21611;SDS011;47005;52.292;13.452;2022-07-23T07:55:46;12.80;;;3.95;;
21611;SDS011;47005;52.292;13.452;2022-07-23T07:58:11;8.60;;;3.65;;
21611;SDS011;47005;52.292;13.452;2022-07-23T08:00:37;7.75;;;4.40;;
21611;SDS011;47005;52.292;13.452;2022-07-23T08:03:03;12.55;;;4.20;;
21611;SDS011;47005;52.292;13.452;2022-07-23T08:05:29;6.97;;;4.05;;
21611;SDS011;47005;52.292;13.452;2022-07-23T08:07:55;6.10;;;4.18;;
21611;SDS011;47005;52.292;13.452;2022-07-23T08:10:22;8.13;;;4.28;;
21611;SDS011;47005;52.292;13.452;2022-07-23T08:12:49;10.60;;;4.22;;
21611;SDS011;47005;52.292;13.452;2022-07-23T08:15:19;11.15;;;3.83;;
21611;SDS011;47005;52.292;13.452;2022-07-23T08:17:45;6.18;;;3.55;;
21611;SDS011;47005;52.292;13.452;2022-07-23T08:20:12;10.00;;;4.82;;
21611;SDS011;47005;52.292;13.452;2022-07-23T08:25:10;9.10;;;4.72;;
21611;SDS011;47005;52.292;13.452;2022-07-23T08:27:36;7.03;;;4.30;;
21611;SDS011;47005;52.292;13.452;2022-07-23T08:30:01;8.15;;;3.90;;
21611;SDS011;47005;52.292;13.452;2022-07-23T08:32:27;9.02;;;5.00;;
21611;SDS011;47005;52.292;13.452;2022-07-23T08:34:53;8.15;;;4.80;;
21611;SDS011;47005;52.292;13.452;2022-07-23T08:37:18;6.68;;;4.13;;
21611;SDS011;47005;52.292;13.452;2022-07-23T08:39:44;7.28;;;5.05;;
21611;SDS011;47005;52.292;13.452;2022-07-23T08:42:09;6.72;;;4.82;;
21611;SDS011;47005;52.292;13.452;2022-07-23T08:44:36;8.05;;;4.65;;
21611;SDS011;47005;52.292;13.452;2022-07-23T08:47:06;7.18;;;4.50;;
21611;SDS011;47005;52.292;13.452;2022-07-23T08:49:32;10.20;;;4.63;;
21611;SDS011;47005;52.292;13.452;2022-07-23T08:51:58;7.25;;;3.63;;
21611;SDS011;47005;52.292;13.452;2022-07-23T08:54:24;8.13;;;5.18;;
21611;SDS011;47005;52.292;13.452;2022-07-23T08:56:49;7.93;;;5.00;;
21611;SDS011;47005;52.292;13.452;2022-07-23T08:59:15;6.95;;;3.95;;
21611;SDS011;47005;52.292;13.452;2022-07-23T09:01:40;5.88;;;4.20;;
21611;SDS011;47005;52.292;13.452;2022-07-23T09:04:06;8.18;;;4.47;;
21611;SDS011;47005;52.292;13.452;2022-07-23T09:06:32;9.25;;;4.90;;
21611;SDS011;47005;52.292;13.452;2022-07-23T09:08:58;8.20;;;5.28;;
21611;SDS011;47005;52.292;13.452;2022-07-23T09:11:40;8.10;;;4.75;;
21611;SDS011;47005;52.292;13.452;2022-07-23T09:14:11;6.53;;;4.32;;
21611;SDS011;47005;52.292;13.452;2022-07-23T09:16:37;7.93;;;4.47;;
21611;SDS011;47005;52.292;13.452;2022-07-23T09:19:04;6.57;;;3.53;;
21611;SDS011;47005;52.292;13.452;2022-07-23T09:21:31;7.10;;;4.85;;
21611;SDS011;47005;52.292;13.452;2022-07-23T09:24:06;8.30;;;3.85;;
21611;SDS011;47005;52.292;13.452;2022-07-23T09:26:38;6.90;;;4.40;;
21611;SDS011;47005;52.292;13.452;2022-07-23T09:34:17;8.13;;;4.85;;
21611;SDS011;47005;52.292;13.452;2022-07-23T09:36:42;7.95;;;5.13;;
21611;SDS011;47005;52.292;13.452;2022-07-23T09:39:09;13.93;;;4.93;;
21611;SDS011;47005;52.292;13.452;2022-07-23T09:41:36;10.25;;;5.68;;
21611;SDS011;47005;52.292;13.452;2022-07-23T09:44:07;8.10;;;5.47;;
21611;SDS011;47005;52.292;13.452;2022-07-23T09:46:35;7.43;;;5.15;;
21611;SDS011;47005;52.292;13.452;2022-07-23T09:49:09;10.32;;;5.47;;
21611;SDS011;47005;52.292;13.452;2022-07-23T09:51:47;8.80;;;5.25;;
21611;SDS011;47005;52.292;13.452;2022-07-23T09:54:38;6.03;;;4.38;;
21611;SDS011;47005;52.292;13.452;2022-07-23T09:57:10;9.18;;;5.63;;
21611;SDS011;47005;52.292;13.452;2022-07-23T09:59:40;7.10;;;4.80;;
21611;SDS011;47005;52.292;13.452;2022-07-23T10:02:08;4.65;;;3.72;;
21611;SDS011;47005;52.292;13.452;2022-07-23T10:04:37;7.50;;;4.50;;
21611;SDS011;47005;52.292;13.452;2022-07-23T10:07:04;9.07;;;4.68;;
21611;SDS011;47005;52.292;13.452;2022-07-23T10:09:34;6.10;;;4.57;;
21611;SDS011;47005;52.292;13.452;2022-07-23T10:12:05;11.95;;;5.35;;
21611;SDS011;47005;52.292;13.452;2022-07-23T10:14:57;5.88;;;4.65;;
21611;SDS011;47005;52.292;13.452;2022-07-23T10:17:23;5.55;;;4.07;;
21611;SDS011;47005;52.292;13.452;2022-07-23T10:19:48;9.20;;;4.47;;
21611;SDS011;47005;52.292;13.452;2022-07-23T10:22:19;7.50;;;4.25;;
21611;SDS011;47005;52.292;13.452;2022-07-23T10:30:11;7.07;;;4.18;;
21611;SDS011;47005;52.292;13.452;2022-07-23T10:32:45;6.80;;;4.75;;
21611;SDS011;47005;52.292;13.452;2022-07-23T10:37:51;9.55;;;4.50;;
21611;SDS011;47005;52.292;13.452;2022-07-23T10:40:26;8.10;;;4.57;;
21611;SDS011;47005;52.292;13.452;2022-07-23T10:42:54;7.93;;;4.63;;
21611;SDS011;47005;52.292;13.452;2022-07-23T10:47:51;6.82;;;3.70;;
21611;SDS011;47005;52.292;13.452;2022-07-23T10:50:21;8.07;;;3.60;;
21611;SDS011;47005;52.292;13.452;2022-07-23T10:55:48;5.45;;;3.78;;
21611;SDS011;47005;52.292;13.452;2022-07-23T10:58:23;5.25;;;3.67;;
21611;SDS011;47005;52.292;13.452;2022-07-23T11:04:01;6.15;;;4.07;;
21611;SDS011;47005;52.292;13.452;2022-07-23T11:09:29;5.22;;;3.72;;
21611;SDS011;47005;52.292;13.452;2022-07-23T11:15:08;4.47;;;3.40;;
21611;SDS011;47005;52.292;13.452;2022-07-23T11:20:17;10.70;;;3.90;;
21611;SDS011;47005;52.292;13.452;2022-07-23T11:22:54;6.30;;;3.72;;
21611;SDS011;47005;52.292;13.452;2022-07-23T11:27:48;6.30;;;3.83;;
21611;SDS011;47005;52.292;13.452;2022-07-23T11:32:53;6.63;;;3.40;;
21611;SDS011;47005;52.292;13.452;2022-07-23T11:35:43;5.85;;;3.50;;
21611;SDS011;47005;52.292;13.452;2022-07-23T11:38:20;6.40;;;3.30;;
21611;SDS011;47005;52.292;13.452;2022-07-23T11:40:51;8.23;;;4.05;;
21611;SDS011;47005;52.292;13.452;2022-07-23T11:43:19;6.10;;;3.63;;
21611;SDS011;47005;52.292;13.452;2022-07-23T11:45:47;5.72;;;3.53;;
21611;SDS011;47005;52.292;13.452;2022-07-23T11:48:20;5.00;;;3.83;;
21611;SDS011;47005;52.292;13.452;2022-07-23T11:50:51;8.25;;;3.95;;
21611;SDS011;47005;52.292;13.452;2022-07-23T11:55:53;9.57;;;4.38;;
21611;SDS011;47005;52.292;13.452;2022-07-23T11:58:20;5.22;;;3.45;;
21611;SDS011;47005;52.292;13.452;2022-07-23T12:00:46;7.20;;;3.65;;
21611;SDS011;47005;52.292;13.452;2022-07-23T12:03:15;5.65;;;2.92;;
21611;SDS011;47005;52.292;13.452;2022-07-23T12:05:41;7.15;;;3.92;;
21611;SDS011;47005;52.292;13.452;2022-07-23T12:08:07;5.40;;;3.42;;
21611;SDS011;47005;52.292;13.452;2022-07-23T12:10:36;9.70;;;3.85;;
21611;SDS011;47005;52.292;13.452;2022-07-23T12:13:22;5.70;;;3.75;;
21611;SDS011;47005;52.292;13.452;2022-07-23T12:15:52;6.53;;;3.65;;
21611;SDS011;47005;52.292;13.452;2022-07-23T12:18:22;4.95;;;3.60;;
21611;SDS011;47005;52.292;13.452;2022-07-23T12:20:50;6.03;;;4.05;;
21611;SDS011;47005;52.292;13.452;2022-07-23T12:23:19;5.70;;;4.38;;
21611;SDS011;47005;52.292;13.452;2022-07-23T12:25:45;6.53;;;4.75;;
21611;SDS011;47005;52.292;13.452;2022-07-23T12:33:11;8.95;;;3.85;;
21611;SDS011;47005;52.292;13.452;2022-07-23T12:35:43;7.28;;;4.22;;
21611;SDS011;47005;52.292;13.452;2022-07-23T12:38:11;6.95;;;4.18;;
21611;SDS011;47005;52.292;13.452;2022-07-23T12:40:48;6.43;;;4.40;;
21611;SDS011;47005;52.292;13.452;2022-07-23T12:43:32;9.65;;;4.15;;
21611;SDS011;47005;52.292;13.452;2022-07-23T12:54:04;6.00;;;4.50;;
21611;SDS011;47005;52.292;13.452;2022-07-23T12:56:36;7.55;;;4.88;;
21611;SDS011;47005;52.292;13.452;2022-07-23T13:01:39;8.18;;;4.70;;
21611;SDS011;47005;52.292;13.452;2022-07-23T13:06:44;7.10;;;4.68;;
21611;SDS011;47005;52.292;13.452;2022-07-23T13:09:29;10.40;;;4.47;;
21611;SDS011;47005;52.292;13.452;2022-07-23T13:12:06;7.20;;;4.57;;
21611;SDS011;47005;52.292;13.452;2022-07-23T13:14:35;6.20;;;4.70;;
21611;SDS011;47005;52.292;13.452;2022-07-23T13:20:09;6.47;;;4.10;;
21611;SDS011;47005;52.292;13.452;2022-07-23T13:22:35;8.02;;;4.97;;
21611;SDS011;47005;52.292;13.452;2022-07-23T13:25:01;6.90;;;4.50;;
21611;SDS011;47005;52.292;13.452;2022-07-23T13:27:29;6.00;;;3.47;;
21611;SDS011;47005;52.292;13.452;2022-07-23T13:29:58;7.47;;;4.10;;
21611;SDS011;47005;52.292;13.452;2022-07-23T13:32:29;6.05;;;4.38;;
21611;SDS011;47005;52.292;13.452;2022-07-23T13:34:54;5.80;;;3.88;;
21611;SDS011;47005;52.292;13.452;2022-07-23T13:37:20;5.65;;;4.40;;
21611;SDS011;47005;52.292;13.452;2022-07-23T13:39:49;7.25;;;4.10;;
21611;SDS011;47005;52.292;13.452;2022-07-23T13:42:21;8.43;;;4.75;;
21611;SDS011;47005;52.292;13.452;2022-07-23T13:44:47;9.02;;;4.03;;
21611;SDS011;47005;52.292;13.452;2022-07-23T13:47:13;7.15;;;4.30;;
21611;SDS011;47005;52.292;13.452;2022-07-23T13:49:38;6.15;;;3.83;;
21611;SDS011;47005;52.292;13.452;2022-07-23T13:52:04;6.53;;;3.78;;
21611;SDS011;47005;52.292;13.452;2022-07-23T13:54:30;6.22;;;3.65;;
21611;SDS011;47005;52.292;13.452;2022-07-23T13:56:56;6.05;;;4.22;;
21611;SDS011;47005;52.292;13.452;2022-07-23T13:59:22;6.68;;;3.58;;
21611;SDS011;47005;52.292;13.452;2022-07-23T14:01:47;6.18;;;3.70;;
21611;SDS011;47005;52.292;13.452;2022-07-23T14:04:20;5.45;;;3.67;;
21611;SDS011;47005;52.292;13.452;2022-07-23T14:06:46;5.38;;;3.88;;
21611;SDS011;47005;52.292;13.452;2022-07-23T14:09:14;6.68;;;4.30;;
21611;SDS011;47005;52.292;13.452;2022-07-23T14:11:40;5.13;;;3.60;;
21611;SDS011;47005;52.292;13.452;2022-07-23T14:14:05;4.47;;;3.67;;
21611;SDS011;47005;52.292;13.452;2022-07-23T14:16:31;6.63;;;3.97;;
21611;SDS011;47005;52.292;13.452;2022-07-23T14:18:57;5.47;;;4.10;;
21611;SDS011;47005;52.292;13.452;2022-07-23T14:21:23;5.18;;;4.07;;
21611;SDS011;47005;52.292;13.452;2022-07-23T14:23:48;5.95;;;3.90;;
21611;SDS011;47005;52.292;13.452;2022-07-23T14:29:11;7.47;;;3.63;;
21611;SDS011;47005;52.292;13.452;2022-07-23T14:31:42;5.18;;;3.90;;
21611;SDS011;47005;52.292;13.452;2022-07-23T14:34:17;6.03;;;3.65;;
21611;SDS011;47005;52.292;13.452;2022-07-23T14:36:48;4.72;;;2.90;;
21611;SDS011;47005;52.292;13.452;2022-07-23T14:39:14;5.07;;;2.85;;
21611;SDS011;47005;52.292;13.452;2022-07-23T14:41:41;6.10;;;3.60;;
21611;SDS011;47005;52.292;13.452;2022-07-23T14:44:07;6.22;;;3.58;;
21611;SDS011;47005;52.292;13.452;2022-07-23T14:46:33;4.50;;;3.33;;
21611;SDS011;47005;52.292;13.452;2022-07-23T14:48:59;4.78;;;3.65;;
21611;SDS011;47005;52.292;13.452;2022-07-23T14:51:25;6.50;;;3.53;;
21611;SDS011;47005;52.292;13.452;2022-07-23T14:53:50;5.28;;;3.33;;
21611;SDS011;47005;52.292;13.452;2022-07-23T14:56:16;6.70;;;3.17;;
21611;SDS011;47005;52.292;13.452;2022-07-23T14:58:42;8.07;;;3.58;;
21611;SDS011;47005;52.292;13.452;2022-07-23T15:01:08;8.13;;;3.55;;
21611;SDS011;47005;52.292;13.452;2022-07-23T15:06:43;4.15;;;3.28;;
21611;SDS011;47005;52.292;13.452;2022-07-23T15:09:09;5.43;;;3.20;;
21611;SDS011;47005;52.292;13.452;2022-07-23T15:11:35;4.70;;;3.65;;
21611;SDS011;47005;52.292;13.452;2022-07-23T15:14:24;3.75;;;2.72;;
21611;SDS011;47005;52.292;13.452;2022-07-23T15:16:49;4.68;;;2.95;;
21611;SDS011;47005;52.292;13.452;2022-07-23T15:19:15;6.72;;;2.80;;
21611;SDS011;47005;52.292;13.452;2022-07-23T15:21:44;5.88;;;3.13;;
21611;SDS011;47005;52.292;13.452;2022-07-23T15:24:10;5.57;;;3.38;;
21611;SDS011;47005;52.292;13.452;2022-07-23T15:26:36;3.55;;;2.97;;
21611;SDS011;47005;52.292;13.452;2022-07-23T15:29:04;4.40;;;2.78;;
21611;SDS011;47005;52.292;13.452;2022-07-23T15:31:34;4.95;;;3.38;;
21611;SDS011;47005;52.292;13.452;2022-07-23T15:33:59;4.03;;;2.72;;
21611;SDS011;47005;52.292;13.452;2022-07-23T15:36:37;5.60;;;2.72;;
21611;SDS011;47005;52.292;13.452;2022-07-23T15:39:05;4.47;;;2.70;;
21611;SDS011;47005;52.292;13.452;2022-07-23T15:41:49;6.57;;;3.17;;
21611;SDS011;47005;52.292;13.452;2022-07-23T15:44:15;7.63;;;2.92;;
21611;SDS011;47005;52.292;13.452;2022-07-23T15:46:40;4.18;;;2.95;;
21611;SDS011;47005;52.292;13.452;2022-07-23T15:49:06;5.68;;;2.78;;